Time;durP1;ratioP1;P1;durP2;ratioP2;P2;SDS_P1;SDS_P2;PMS_P1;PMS_P2;Temp;Humidity;BMP_temperature;BMP_pressure;BME280_temperature;BME280_humidity;BME280_pressure;Samples;Min_cycle;Max_cycle;Signal;HPM_P1;HPM_P2
2022/01/22 00:01:09;;;;;;;10.65;3.38;;;6.20;99.90;;;;;;5075302;27;87653;-30
2022/01/22 00:03:36;;;;;;;12.70;3.92;;;6.20;99.90;;;;;;5076950;27;90443;-32
2022/01/22 00:06:01;;;;;;;18.98;4.15;;;6.20;99.90;;;;;;5078424;27;90188;-29
2022/01/22 00:08:27;;;;;;;14.50;3.75;;;6.20;99.90;;;;;;5078890;27;87999;-31
2022/01/22 00:10:53;;;;;;;21.48;4.13;;;6.20;99.90;;;;;;5076853;27;87988;-31
2022/01/22 00:15:46;;;;;;;21.98;4.20;;;6.20;99.90;;;;;;5078787;27;89496;-30
2022/01/22 00:18:11;;;;;;;22.83;4.40;;;6.20;99.90;;;;;;5078842;27;88332;-31
2022/01/22 00:20:37;;;;;;;17.58;4.10;;;6.20;99.90;;;;;;5078771;27;87648;-33
2022/01/22 00:23:04;;;;;;;17.90;3.40;;;6.30;99.90;;;;;;5078772;27;90308;-31
2022/01/22 00:25:30;;;;;;;24.38;4.90;;;6.30;99.90;;;;;;5078634;27;89463;-32
2022/01/22 00:27:56;;;;;;;14.20;3.65;;;6.20;99.90;;;;;;5079033;27;87561;-30
2022/01/22 00:30:24;;;;;;;11.10;4.15;;;6.20;99.90;;;;;;5078723;27;87812;-32
2022/01/22 00:32:51;;;;;;;5.40;2.80;;;6.20;99.90;;;;;;5078632;27;89113;-30
2022/01/22 00:35:18;;;;;;;9.98;3.50;;;6.30;99.90;;;;;;5078709;27;89415;-29
2022/01/22 00:37:47;;;;;;;9.38;3.30;;;6.40;99.90;;;;;;5078712;27;87608;-30
2022/01/22 00:40:14;;;;;;;23.30;4.82;;;6.30;99.90;;;;;;5060217;27;88122;-30
2022/01/22 00:42:41;;;;;;;12.65;3.47;;;6.30;99.90;;;;;;5078307;27;90027;-30
2022/01/22 00:45:08;;;;;;;11.68;3.35;;;6.30;99.90;;;;;;5078092;27;90165;-31
2022/01/22 00:47:34;;;;;;;16.52;3.58;;;6.30;99.90;;;;;;5078858;27;87764;-32
2022/01/22 00:49:59;;;;;;;13.68;3.63;;;6.30;99.90;;;;;;5078603;27;88183;-30
2022/01/22 00:52:25;;;;;;;8.65;2.70;;;6.30;99.90;;;;;;5078444;27;90158;-31
2022/01/22 00:54:50;;;;;;;7.72;3.10;;;6.20;99.90;;;;;;5077605;27;89615;-31
2022/01/22 00:57:16;;;;;;;11.07;3.33;;;6.30;99.90;;;;;;5078742;27;88641;-31
2022/01/22 00:59:42;;;;;;;6.25;2.05;;;6.30;99.90;;;;;;5078791;27;87653;-31
2022/01/22 01:02:07;;;;;;;6.03;2.72;;;6.30;99.90;;;;;;5077405;27;89417;-28
2022/01/22 01:04:35;;;;;;;10.13;2.50;;;6.30;99.90;;;;;;5077878;27;90031;-34
2022/01/22 01:07:01;;;;;;;10.23;2.53;;;6.30;99.90;;;;;;5077868;27;87572;-29
2022/01/22 01:09:27;;;;;;;6.10;2.10;;;6.30;99.90;;;;;;5078185;27;87687;-32
2022/01/22 01:11:58;;;;;;;8.25;2.10;;;6.40;99.90;;;;;;5077990;27;90143;-29
2022/01/22 01:14:31;;;;;;;8.50;2.60;;;6.40;99.90;;;;;;5077750;27;88407;-31
2022/01/22 01:33:14;;;;;;;6.65;2.20;;;6.50;99.90;;;;;;5077661;27;90760;-30
2022/01/22 01:35:41;;;;;;;2.92;2.03;;;6.40;99.90;;;;;;5077679;27;88560;-33
2022/01/22 01:38:07;;;;;;;3.03;1.98;;;6.40;99.90;;;;;;5077888;27;87707;-30
2022/01/22 01:40:37;;;;;;;15.23;3.50;;;6.40;99.90;;;;;;5077801;27;87684;-33
2022/01/22 01:43:11;;;;;;;9.20;3.28;;;6.40;99.90;;;;;;5077255;27;90001;-29
2022/01/22 01:45:37;;;;;;;10.65;2.80;;;6.40;99.90;;;;;;5076992;27;89408;-33
2022/01/22 01:48:10;;;;;;;5.32;2.45;;;6.50;99.90;;;;;;5077165;27;88264;-29
2022/01/22 01:50:38;;;;;;;6.25;2.45;;;6.40;99.90;;;;;;5077744;27;87686;-30
2022/01/22 01:58:17;;;;;;;13.38;3.05;;;6.40;99.90;;;;;;5077620;27;87518;-33
2022/01/22 02:00:43;;;;;;;13.75;2.67;;;6.50;99.90;;;;;;5077105;27;87657;-30
2022/01/22 02:03:12;;;;;;;9.88;2.58;;;6.60;99.90;;;;;;5076813;27;89211;-33
2022/01/22 02:05:38;;;;;;;8.95;2.90;;;6.60;99.90;;;;;;5076861;27;89968;-30
2022/01/22 02:08:05;;;;;;;6.68;2.53;;;6.50;99.90;;;;;;5077345;27;88774;-30
2022/01/22 02:10:34;;;;;;;10.30;2.42;;;6.50;99.90;;;;;;5076799;27;87706;-30
2022/01/22 02:13:42;;;;;;;2.58;1.80;;;6.60;99.90;;;;;;5076818;27;90299;-30
2022/01/22 02:24:01;;;;;;;5.95;2.05;;;6.70;99.90;;;;;;5076727;27;89150;-29
2022/01/22 02:26:28;;;;;;;6.93;2.63;;;6.80;99.90;;;;;;5075928;27;89560;-31
2022/01/22 02:28:54;;;;;;;19.17;2.88;;;6.80;99.90;;;;;;5077619;27;88177;-30
2022/01/22 02:31:41;;;;;;;9.23;2.25;;;6.80;99.90;;;;;;5077109;27;87847;-30
2022/01/22 02:34:36;;;;;;;7.07;1.98;;;6.80;99.90;;;;;;5077095;27;88897;-31
2022/01/22 02:37:10;;;;;;;7.60;1.90;;;6.70;99.90;;;;;;5076142;27;89354;-32
2022/01/22 02:39:44;;;;;;;5.03;2.33;;;6.80;99.90;;;;;;5076848;27;88405;-29
2022/01/22 02:42:10;;;;;;;7.30;1.77;;;6.80;99.90;;;;;;5076581;27;87916;-30
2022/01/22 02:44:46;;;;;;;5.40;2.15;;;6.80;99.90;;;;;;5076032;27;90149;-30
2022/01/22 02:47:14;;;;;;;1.85;1.55;;;6.80;99.90;;;;;;5056336;27;89544;-30
2022/01/22 02:49:40;;;;;;;4.40;1.92;;;6.90;99.90;;;;;;5077018;27;88626;-29
2022/01/22 02:52:08;;;;;;;5.88;2.10;;;6.90;99.90;;;;;;5076327;27;87514;-32
2022/01/22 02:54:35;;;;;;;4.97;2.10;;;6.80;99.90;;;;;;5076776;27;88893;-31
2022/01/22 02:57:00;;;;;;;7.47;1.80;;;6.80;99.90;;;;;;5076019;27;89360;-29
2022/01/22 02:59:26;;;;;;;5.80;1.90;;;6.70;99.90;;;;;;5076768;27;88727;-31
2022/01/22 03:01:53;;;;;;;6.18;2.15;;;6.70;99.90;;;;;;5075936;27;88200;-31
2022/01/22 03:04:19;;;;;;;2.47;1.73;;;6.80;99.90;;;;;;5073876;27;90127;-31
2022/01/22 03:06:46;;;;;;;8.80;2.28;;;6.80;99.90;;;;;;5076738;27;89280;-29
2022/01/22 03:09:14;;;;;;;6.63;2.17;;;6.70;99.90;;;;;;5076561;27;89041;-31
2022/01/22 03:12:15;;;;;;;2.97;1.60;;;6.70;99.90;;;;;;5076052;27;87646;-31
2022/01/22 03:17:49;;;;;;;1.92;1.48;;;6.80;99.90;;;;;;5076356;27;89715;-31
2022/01/22 03:28:01;;;;;;;8.02;2.88;;;6.70;99.90;;;;;;5075171;27;89782;-34
2022/01/22 03:30:27;;;;;;;5.00;2.63;;;6.70;99.90;;;;;;5076297;27;87561;-31
2022/01/22 03:32:55;;;;;;;9.02;2.00;;;6.60;99.90;;;;;;5076069;27;87885;-31
2022/01/22 03:37:53;;;;;;;3.30;2.58;;;6.70;99.90;;;;;;5076037;27;89677;-31
2022/01/22 03:40:25;;;;;;;3.42;2.30;;;6.70;99.90;;;;;;5075641;27;88258;-31
2022/01/22 03:42:52;;;;;;;5.25;1.80;;;6.80;99.90;;;;;;5057775;27;87694;-31
2022/01/22 03:45:19;;;;;;;5.50;2.70;;;6.80;99.90;;;;;;5075082;27;90405;-31
2022/01/22 03:47:46;;;;;;;4.47;2.70;;;6.70;99.90;;;;;;5075774;27;90061;-27
2022/01/22 03:50:13;;;;;;;6.85;2.45;;;6.70;99.90;;;;;;5075813;27;87585;-32
2022/01/22 03:52:39;;;;;;;6.17;2.70;;;6.60;99.90;;;;;;5076006;27;87681;-30
2022/01/22 03:55:09;;;;;;;6.78;2.17;;;6.60;99.90;;;;;;5075273;27;90199;-29
2022/01/22 03:57:34;;;;;;;5.40;2.20;;;6.60;99.90;;;;;;5076017;27;90014;-32
2022/01/22 04:00:01;;;;;;;6.22;2.33;;;6.60;99.90;;;;;;5075344;27;87546;-31
2022/01/22 04:05:02;;;;;;;7.68;2.38;;;6.70;99.90;;;;;;5075881;27;90242;-32
2022/01/22 04:10:18;;;;;;;4.70;2.13;;;6.60;99.90;;;;;;5075708;27;87542;-32
2022/01/22 04:12:57;;;;;;;9.55;2.80;;;6.50;99.90;;;;;;5075863;27;87500;-31
2022/01/22 04:15:26;;;;;;;7.97;2.17;;;6.50;99.90;;;;;;5075533;27;90436;-32
2022/01/22 04:28:51;;;;;;;7.65;2.25;;;6.40;99.90;;;;;;5032578;27;89598;-29
2022/01/22 04:31:17;;;;;;;3.33;1.80;;;6.40;99.90;;;;;;5074952;27;87752;-30
2022/01/22 04:33:42;;;;;;;4.85;2.30;;;6.40;99.90;;;;;;5075400;27;87642;-31
2022/01/22 04:36:09;;;;;;;4.53;1.65;;;6.50;99.90;;;;;;5074810;27;90216;-32
2022/01/22 04:38:34;;;;;;;5.25;1.85;;;6.50;99.90;;;;;;5075447;27;89870;-30
2022/01/22 04:41:00;;;;;;;7.38;2.40;;;6.50;99.90;;;;;;5075117;27;88088;-30
2022/01/22 04:43:27;;;;;;;7.22;2.67;;;6.50;99.90;;;;;;5074660;27;87662;-31
2022/01/22 04:46:10;;;;;;;3.25;1.90;;;6.50;99.90;;;;;;5074653;27;89291;-29
2022/01/22 04:49:08;;;;;;;3.13;2.00;;;6.40;99.90;;;;;;5075009;27;88950;-30
2022/01/22 04:56:53;;;;;;;6.50;2.42;;;6.50;99.90;;;;;;5078547;27;90320;-32
2022/01/22 04:59:19;;;;;;;3.08;1.58;;;6.40;99.90;;;;;;5078042;27;88294;-30
2022/01/22 05:01:44;;;;;;;7.85;2.45;;;6.40;99.90;;;;;;5077931;27;87716;-30
2022/01/22 05:04:10;;;;;;;3.78;2.05;;;6.50;99.90;;;;;;5084342;27;87757;-32
2022/01/22 05:06:36;;;;;;;6.20;2.22;;;6.50;99.90;;;;;;5065918;27;90078;-30
2022/01/22 05:09:02;;;;;;;2.88;1.67;;;6.50;99.90;;;;;;5085742;27;89739;-30
2022/01/22 05:11:28;;;;;;;2.08;1.42;;;6.50;99.90;;;;;;5084348;27;88841;-34
2022/01/22 05:13:53;;;;;;;5.65;1.70;;;6.50;99.90;;;;;;5083393;27;88204;-30
2022/01/22 05:16:20;;;;;;;1.73;1.63;;;6.50;99.90;;;;;;5085909;27;90265;-30
2022/01/22 05:19:00;;;;;;;8.30;2.65;;;6.60;99.90;;;;;;5083806;27;88467;-29
2022/01/22 05:21:28;;;;;;;4.88;2.28;;;6.60;99.90;;;;;;5063357;27;87643;-33
2022/01/22 05:23:56;;;;;;;1.98;1.77;;;6.60;99.90;;;;;;5087457;27;88024;-30
2022/01/22 05:31:53;;;;;;;5.70;2.17;;;6.40;99.90;;;;;;5077604;27;88251;-30
2022/01/22 05:37:07;;;;;;;6.05;2.13;;;6.40;99.90;;;;;;5077434;27;90868;-30
2022/01/22 05:39:34;;;;;;;3.30;2.10;;;6.50;99.90;;;;;;5090247;27;88467;-32
2022/01/22 05:42:03;;;;;;;3.40;1.63;;;6.40;99.90;;;;;;5098564;27;87563;-30
2022/01/22 05:44:32;;;;;;;2.47;1.35;;;6.40;99.90;;;;;;5097984;27;88307;-32
2022/01/22 05:47:03;;;;;;;6.32;1.67;;;6.50;99.90;;;;;;5098098;27;90308;-34
2022/01/22 05:49:32;;;;;;;3.45;1.70;;;6.40;99.90;;;;;;5065306;27;89205;-31
2022/01/22 05:52:00;;;;;;;6.40;1.70;;;6.50;99.90;;;;;;5071132;27;87527;-33
2022/01/22 05:59:41;;;;;;;4.03;2.17;;;6.40;99.90;;;;;;5069980;27;89963;-29
2022/01/22 06:02:13;;;;;;;1.55;1.45;;;6.40;99.90;;;;;;5069830;27;87584;-29
2022/01/22 06:04:40;;;;;;;2.20;1.77;;;6.40;99.90;;;;;;5070190;27;87850;-30
2022/01/22 06:07:07;;;;;;;9.38;1.73;;;6.40;99.90;;;;;;5069456;27;88921;-33
2022/01/22 06:09:34;;;;;;;2.47;1.15;;;6.40;99.90;;;;;;5068414;27;89311;-30
2022/01/22 06:14:32;;;;;;;7.53;1.60;;;6.40;99.90;;;;;;5071166;27;88017;-30
2022/01/22 06:16:58;;;;;;;8.70;1.88;;;6.50;99.90;;;;;;5071941;27;90199;-31
2022/01/22 06:19:23;;;;;;;2.97;1.90;;;6.50;99.90;;;;;;5071614;27;87765;-30
2022/01/22 06:21:51;;;;;;;6.13;1.77;;;6.40;99.90;;;;;;5071251;27;88050;-30
2022/01/22 06:24:17;;;;;;;2.03;1.67;;;6.50;99.90;;;;;;5071365;27;88054;-29
2022/01/22 06:26:43;;;;;;;6.20;1.60;;;6.50;99.90;;;;;;5071028;27;90543;-31
2022/01/22 06:29:09;;;;;;;2.15;1.95;;;6.50;99.90;;;;;;5071465;27;90208;-30
2022/01/22 06:31:35;;;;;;;2.97;1.63;;;6.50;99.90;;;;;;5071332;27;87530;-32
2022/01/22 06:34:00;;;;;;;5.53;2.28;;;6.50;99.90;;;;;;5071710;27;87831;-31
2022/01/22 06:36:27;;;;;;;3.88;2.00;;;6.40;99.90;;;;;;5070449;27;90254;-33
2022/01/22 06:38:58;;;;;;;3.67;1.63;;;6.50;99.90;;;;;;5071503;27;89592;-31
2022/01/22 06:44:08;;;;;;;1.95;1.70;;;6.50;99.90;;;;;;5070851;27;88322;-33
2022/01/22 06:46:34;;;;;;;4.85;1.67;;;6.50;99.90;;;;;;5070573;27;90525;-35
2022/01/22 06:48:59;;;;;;;3.67;1.80;;;6.50;99.90;;;;;;5070673;27;89849;-31
2022/01/22 06:51:27;;;;;;;3.65;1.90;;;6.50;99.90;;;;;;5070583;27;87650;-33
2022/01/22 06:53:53;;;;;;;5.13;2.40;;;6.60;99.90;;;;;;5070863;27;88410;-31
2022/01/22 06:56:21;;;;;;;8.35;2.50;;;6.60;99.90;;;;;;5069283;27;90745;-31
2022/01/22 06:58:48;;;;;;;4.83;2.87;;;6.60;99.90;;;;;;5070873;27;88957;-31
2022/01/22 07:01:14;;;;;;;4.72;2.20;;;6.70;99.90;;;;;;5070663;27;87752;-31
2022/01/22 07:03:40;;;;;;;12.05;3.45;;;6.60;99.90;;;;;;5070821;27;88304;-30
2022/01/22 07:06:05;;;;;;;4.45;2.60;;;6.60;99.90;;;;;;5070771;27;89949;-34
2022/01/22 07:08:31;;;;;;;12.05;3.20;;;6.60;99.90;;;;;;5069312;27;89687;-32
2022/01/22 07:10:56;;;;;;;6.68;2.63;;;6.60;99.90;;;;;;5070685;27;87641;-33
2022/01/22 07:13:22;;;;;;;6.22;2.85;;;6.60;99.90;;;;;;5050799;27;88461;-34
2022/01/22 07:15:48;;;;;;;7.63;4.22;;;6.60;99.90;;;;;;5001027;27;90801;-31
2022/01/22 07:18:14;;;;;;;14.05;3.47;;;6.60;99.90;;;;;;5069637;27;89484;-34
2022/01/22 07:20:42;;;;;;;7.88;2.90;;;6.60;99.90;;;;;;5053265;27;88083;-31
2022/01/22 07:25:44;;;;;;;6.82;2.65;;;6.70;99.90;;;;;;5096736;27;90359;-31
2022/01/22 07:28:11;;;;;;;6.22;2.83;;;6.70;99.90;;;;;;5096373;27;89578;-31
2022/01/22 07:30:38;;;;;;;5.97;3.05;;;6.70;99.90;;;;;;5097303;27;87562;-30
2022/01/22 07:33:04;;;;;;;5.93;2.70;;;6.70;99.90;;;;;;5096862;27;87761;-32
2022/01/22 07:35:30;;;;;;;8.07;3.17;;;6.70;99.90;;;;;;5096113;27;90030;-32
2022/01/22 07:37:55;;;;;;;5.35;3.13;;;6.70;99.90;;;;;;5096161;27;90020;-30
2022/01/22 07:40:21;;;;;;;12.35;2.70;;;6.70;99.90;;;;;;5096517;27;88256;-31
2022/01/22 07:42:46;;;;;;;5.40;3.10;;;6.70;99.90;;;;;;5096352;27;87655;-32
2022/01/22 07:45:12;;;;;;;3.78;2.13;;;6.70;99.90;;;;;;5076848;27;90289;-31
2022/01/22 07:47:38;;;;;;;7.25;2.17;;;6.70;99.90;;;;;;5082882;27;89853;-31
2022/01/22 07:50:06;;;;;;;7.25;2.00;;;6.60;99.90;;;;;;5007270;27;87927;-33
2022/01/22 07:52:32;;;;;;;;;;;6.70;99.90;;;;;;5094822;27;88416;-31
2022/01/22 07:54:57;;;;;;;3.72;2.78;;;6.80;99.90;;;;;;5096782;27;90327;-31
2022/01/22 07:57:23;;;;;;;2.88;2.60;;;6.70;99.90;;;;;;5095861;27;89936;-30
2022/01/22 07:59:49;;;;;;;5.03;3.58;;;6.60;99.90;;;;;;5096148;27;87753;-32
2022/01/22 08:02:15;;;;;;;4.25;2.78;;;6.60;99.90;;;;;;5094815;27;88847;-32
2022/01/22 08:04:41;;;;;;;3.30;2.17;;;6.70;99.90;;;;;;5095514;27;89016;-30
2022/01/22 08:07:08;;;;;;;3.05;2.00;;;6.70;99.90;;;;;;5095201;27;89355;-34
2022/01/22 08:09:34;;;;;;;7.50;1.98;;;6.70;99.90;;;;;;5095389;27;87892;-33
2022/01/22 08:12:00;;;;;;;3.13;2.15;;;6.70;99.90;;;;;;5095606;27;87936;-32
2022/01/22 08:14:26;;;;;;;2.17;1.85;;;6.70;99.90;;;;;;5095422;27;90550;-31
2022/01/22 08:16:52;;;;;;;4.68;2.28;;;6.70;99.90;;;;;;5096436;27;89617;-33
2022/01/22 08:19:18;;;;;;;4.32;2.17;;;6.70;99.90;;;;;;5096154;27;87487;-31
2022/01/22 08:21:45;;;;;;;2.28;1.95;;;6.70;99.90;;;;;;5096079;27;88056;-30
2022/01/22 08:24:12;;;;;;;4.40;1.88;;;6.70;99.90;;;;;;5095607;27;90320;-32
2022/01/22 08:26:44;;;;;;;3.80;2.00;;;6.70;99.90;;;;;;5099204;27;89600;-30
2022/01/22 08:29:09;;;;;;;3.15;2.03;;;6.70;99.90;;;;;;5099749;27;87960;-31
2022/01/22 08:36:47;;;;;;;3.85;2.67;;;6.70;99.90;;;;;;5099801;27;89720;-34
2022/01/22 08:39:15;;;;;;;3.13;2.22;;;6.70;99.90;;;;;;5099522;27;88221;-37
2022/01/22 08:41:41;;;;;;;4.47;2.67;;;6.70;99.90;;;;;;5099390;27;88015;-30
2022/01/22 08:44:07;;;;;;;2.70;2.08;;;6.80;99.90;;;;;;5099615;27;89299;-33
2022/01/22 08:46:34;;;;;;;5.68;1.83;;;6.70;99.90;;;;;;5099022;27;89069;-30
2022/01/22 08:49:00;;;;;;;3.58;2.22;;;6.70;99.90;;;;;;5099661;27;87887;-31
2022/01/22 08:51:26;;;;;;;1.83;1.63;;;6.70;99.90;;;;;;5098885;27;87734;-30
2022/01/22 08:53:52;;;;;;;2.70;1.70;;;6.80;99.90;;;;;;5099043;27;89012;-30
2022/01/22 08:56:18;;;;;;;3.17;1.92;;;6.80;99.90;;;;;;5080542;27;90242;-31
2022/01/22 08:58:44;;;;;;;2.00;1.60;;;6.80;99.90;;;;;;5098958;27;87615;-31
2022/01/22 09:01:10;;;;;;;2.22;1.48;;;6.80;99.90;;;;;;5098220;27;88006;-31
2022/01/22 09:03:36;;;;;;;5.45;1.40;;;6.90;99.90;;;;;;5080575;27;90292;-33
2022/01/22 09:06:04;;;;;;;1.35;1.25;;;7.00;99.90;;;;;;5098563;27;90017;-32
2022/01/22 09:08:30;;;;;;;3.77;1.30;;;6.90;99.90;;;;;;5098895;27;87720;-32
2022/01/22 09:10:55;;;;;;;1.77;1.42;;;6.90;99.90;;;;;;5099205;27;87633;-32
2022/01/22 09:13:23;;;;;;;1.23;1.13;;;6.80;99.90;;;;;;5098068;27;90178;-31
2022/01/22 09:15:50;;;;;;;4.03;1.40;;;6.80;99.90;;;;;;5098660;27;89741;-34
2022/01/22 09:18:17;;;;;;;4.00;2.65;;;6.80;99.90;;;;;;5098185;27;87995;-31
2022/01/22 09:20:55;;;;;;;2.13;1.42;;;6.90;99.90;;;;;;5098692;27;87773;-32
2022/01/22 09:23:21;;;;;;;3.90;1.45;;;6.90;99.90;;;;;;5098516;27;88886;-30
2022/01/22 09:25:47;;;;;;;3.10;1.20;;;6.80;99.90;;;;;;5098802;27;89934;-32
2022/01/22 09:28:14;;;;;;;5.72;2.47;;;6.90;99.90;;;;;;5098199;27;87598;-32
2022/01/22 09:30:41;;;;;;;7.93;6.20;;;6.90;99.90;;;;;;5097254;27;87559;-32
2022/01/22 09:33:07;;;;;;;3.42;1.67;;;6.90;99.90;;;;;;5098231;27;90347;-30
2022/01/22 09:35:33;;;;;;;4.78;2.92;;;7.00;99.90;;;;;;5097647;27;88687;-30
2022/01/22 09:37:58;;;;;;;2.47;1.98;;;7.00;99.90;;;;;;5096357;27;88139;-30
2022/01/22 09:40:26;;;;;;;6.78;2.17;;;6.90;99.90;;;;;;5097920;27;88293;-33
2022/01/22 09:42:52;;;;;;;4.70;2.28;;;6.90;99.90;;;;;;5098321;27;90042;-31
2022/01/22 09:45:17;;;;;;;6.30;5.25;;;7.00;99.90;;;;;;5098000;27;89454;-35
2022/01/22 09:47:47;;;;;;;5.00;3.75;;;7.00;99.90;;;;;;5098094;27;88307;-32
2022/01/22 09:50:13;;;;;;;4.70;1.85;;;7.00;99.90;;;;;;5098361;27;87679;-30
2022/01/22 09:52:39;;;;;;;7.45;3.13;;;7.00;99.90;;;;;;5097853;27;90440;-31
2022/01/22 09:55:06;;;;;;;6.18;3.13;;;7.00;99.90;;;;;;5097915;27;89723;-29
2022/01/22 09:57:34;;;;;;;6.72;2.53;;;7.00;99.90;;;;;;5098159;27;89410;-30
2022/01/22 10:00:00;;;;;;;;;;;7.10;99.90;;;;;;5098472;27;87967;-31
2022/01/22 10:02:26;;;;;;;7.25;2.50;;;7.10;99.90;;;;;;5099083;27;90930;-31
2022/01/22 10:04:52;;;;;;;5.70;2.33;;;7.10;99.90;;;;;;5097862;27;89735;-29
2022/01/22 10:07:21;;;;;;;2.33;2.13;;;7.10;99.90;;;;;;5097632;27;87531;-32
2022/01/22 10:09:59;;;;;;;;;;;7.10;99.90;;;;;;5098416;27;87441;-30
2022/01/22 10:12:27;;;;;;;5.20;1.90;;;7.10;99.90;;;;;;5098741;27;89228;-32
2022/01/22 10:15:15;;;;;;;9.07;2.08;;;7.10;99.90;;;;;;5098081;27;89593;-32
2022/01/22 10:17:42;;;;;;;11.00;2.17;;;7.00;99.90;;;;;;5097885;27;87582;-34
2022/01/22 10:20:29;;;;;;;2.70;2.13;;;7.10;99.90;;;;;;5070088;27;88136;-32
2022/01/22 10:23:01;;;;;;;9.63;2.63;;;7.00;99.90;;;;;;5076554;27;90323;-32
2022/01/22 10:25:53;;;;;;;5.95;2.75;;;7.00;99.90;;;;;;5076297;27;89154;-34
2022/01/22 10:28:25;;;;;;;10.48;2.15;;;7.00;99.90;;;;;;5076598;27;87495;-35
2022/01/22 10:30:58;;;;;;;4.78;3.58;;;7.00;99.90;;;;;;5074705;27;88091;-30
2022/01/22 10:36:19;;;;;;;5.53;2.25;;;7.00;99.90;;;;;;5076138;27;89107;-34
2022/01/22 10:38:53;;;;;;;9.48;2.60;;;7.00;99.90;;;;;;5075423;27;87578;-31
2022/01/22 10:41:40;;;;;;;5.53;2.63;;;7.00;99.90;;;;;;5076301;27;87725;-37
2022/01/22 10:44:09;;;;;;;3.08;1.90;;;7.00;99.90;;;;;;5078768;27;89958;-31
2022/01/22 10:46:46;;;;;;;6.18;2.45;;;7.00;99.90;;;;;;5097265;27;89647;-30
2022/01/22 10:49:19;;;;;;;7.13;2.17;;;7.10;99.90;;;;;;5095950;27;87875;-31
2022/01/22 10:51:56;;;;;;;3.20;2.35;;;7.10;99.90;;;;;;5097847;27;87757;-32
2022/01/22 10:54:34;;;;;;;4.63;2.25;;;7.10;99.90;;;;;;5095906;27;90285;-32
2022/01/22 10:57:27;;;;;;;5.88;3.03;;;7.10;99.90;;;;;;5096767;27;89327;-31
2022/01/22 10:59:56;;;;;;;2.92;2.03;;;7.10;99.90;;;;;;5096520;27;88354;-35
2022/01/22 11:02:36;;;;;;;6.25;2.92;;;7.10;99.90;;;;;;5096793;27;87689;-31
2022/01/22 11:05:03;;;;;;;6.05;2.28;;;7.20;99.90;;;;;;5096662;27;89476;-32
2022/01/22 11:07:28;;;;;;;6.10;2.55;;;7.30;99.90;;;;;;5096366;27;89236;-30
2022/01/22 11:09:55;;;;;;;12.85;2.75;;;7.30;99.90;;;;;;5096271;27;87484;-33
2022/01/22 11:12:21;;;;;;;5.80;2.58;;;7.30;99.90;;;;;;5096838;27;88209;-32
2022/01/22 11:14:46;;;;;;;6.38;2.53;;;7.40;99.90;;;;;;5096684;27;90152;-33
2022/01/22 11:17:13;;;;;;;6.70;2.70;;;7.50;99.90;;;;;;5096131;27;88689;-31
2022/01/22 11:19:40;;;;;;;8.25;4.00;;;7.60;99.90;;;;;;5096128;27;87685;-30
2022/01/22 11:22:14;;;;;;;3.63;3.22;;;7.60;99.90;;;;;;5096403;27;88626;-32
2022/01/22 11:24:50;;;;;;;4.65;2.85;;;7.50;99.90;;;;;;5096187;27;90255;-30
2022/01/22 11:27:19;;;;;;;4.95;3.20;;;7.50;99.90;;;;;;5096633;27;89531;-32
2022/01/22 11:29:58;;;;;;;7.55;3.70;;;7.50;99.90;;;;;;5095823;27;87635;-31
2022/01/22 11:32:40;;;;;;;10.00;3.83;;;7.50;99.90;;;;;;5096506;27;87565;-29
2022/01/22 11:35:08;;;;;;;4.43;2.92;;;7.50;99.90;;;;;;5096012;27;90473;-31
2022/01/22 11:37:45;;;;;;;6.30;3.20;;;7.50;99.90;;;;;;5096327;27;89454;-32
2022/01/22 11:40:23;;;;;;;7.78;2.80;;;7.50;99.90;;;;;;5096341;27;87538;-30
2022/01/22 11:43:07;;;;;;;3.97;3.38;;;7.50;99.90;;;;;;5096113;27;87777;-31
2022/01/22 11:45:56;;;;;;;9.43;3.47;;;7.60;99.90;;;;;;5103532;22;90154;-33
2022/01/22 11:48:24;;;;;;;;;;;7.50;99.90;;;;;;5055163;27;89768;-34
2022/01/22 11:50:52;;;;;;;11.32;3.10;;;7.50;99.90;;;;;;5056273;27;88041;-33
2022/01/22 11:53:29;;;;;;;4.00;2.87;;;7.50;99.90;;;;;;5055281;27;88960;-33
2022/01/22 11:56:10;;;;;;;4.10;2.70;;;7.50;99.90;;;;;;5055796;27;89219;-32
2022/01/22 11:59:01;;;;;;;7.00;3.05;;;7.50;99.90;;;;;;5054956;27;89114;-32
2022/01/22 12:01:45;;;;;;;14.57;3.55;;;7.50;99.90;;;;;;5058404;27;87551;-29
2022/01/22 12:04:16;;;;;;;5.40;4.28;;;7.50;99.90;;;;;;5057388;27;87676;-31
2022/01/22 12:07:00;;;;;;;11.75;4.30;;;7.50;99.90;;;;;;5057886;27;90229;-31
2022/01/22 12:09:29;;;;;;;6.95;2.65;;;7.50;99.90;;;;;;5061713;27;89735;-35
2022/01/22 12:14:54;;;;;;;12.50;3.58;;;7.40;99.90;;;;;;5078299;27;88176;-31
2022/01/22 12:18:04;;;;;;;15.80;3.30;;;7.40;99.90;;;;;;5078639;27;90298;-32
2022/01/22 12:23:08;;;;;;;9.52;4.13;;;7.30;99.90;;;;;;5078630;27;88024;-32
2022/01/22 12:25:33;;;;;;;6.90;4.00;;;7.30;99.90;;;;;;5079094;27;87510;-32
2022/01/22 12:27:59;;;;;;;5.57;3.92;;;7.30;99.90;;;;;;5078468;27;90051;-29
2022/01/22 12:30:44;;;;;;;22.40;4.32;;;7.30;99.90;;;;;;5078196;27;89771;-31
2022/01/22 12:33:28;;;;;;;12.43;4.80;;;7.30;99.90;;;;;;5078906;27;87527;-35
2022/01/22 12:35:58;;;;;;;12.23;3.90;;;7.20;99.90;;;;;;5078637;27;87657;-32
2022/01/22 12:38:35;;;;;;;4.93;3.55;;;7.20;99.90;;;;;;5078756;27;90595;-29
2022/01/22 12:44:35;;;;;;;5.55;4.20;;;7.20;99.90;;;;;;5077993;27;88032;-30
2022/01/22 12:47:11;;;;;;;10.63;3.88;;;7.30;99.90;;;;;;5078650;27;88182;-31
2022/01/22 12:49:38;;;;;;;8.27;3.80;;;7.30;99.90;;;;;;5077739;27;90577;-30
2022/01/22 12:52:11;;;;;;;18.83;4.97;;;7.30;99.90;;;;;;5078374;27;89276;-31
2022/01/22 12:54:42;;;;;;;7.85;4.15;;;7.20;99.90;;;;;;5078343;27;88901;-31
2022/01/22 12:57:10;;;;;;;5.05;4.35;;;7.30;99.90;;;;;;5078813;27;88001;-31
2022/01/22 13:00:06;;;;;;;8.15;4.55;;;7.30;99.90;;;;;;5078025;27;90369;-30
2022/01/22 13:02:56;;;;;;;11.43;4.93;;;7.30;99.90;;;;;;5078063;27;88736;-29
2022/01/22 13:05:24;;;;;;;11.90;5.22;;;7.30;99.90;;;;;;5077936;27;87527;-31
2022/01/22 13:07:54;;;;;;;10.80;5.13;;;7.30;99.90;;;;;;5077747;27;88218;-29
2022/01/22 13:10:28;;;;;;;10.75;4.45;;;7.30;99.90;;;;;;5077259;27;92427;-31
2022/01/22 13:12:56;;;;;;;5.70;4.38;;;7.30;99.90;;;;;;5077763;27;90085;-30
2022/01/22 13:15:22;;;;;;;12.82;4.72;;;7.30;99.90;;;;;;5078215;27;87572;-30
2022/01/22 13:17:55;;;;;;;7.05;4.57;;;7.20;99.90;;;;;;5076096;27;88940;-32
2022/01/22 13:20:26;;;;;;;14.75;5.00;;;7.20;99.90;;;;;;5077556;27;89246;-30
2022/01/22 13:22:53;;;;;;;9.43;4.05;;;7.20;99.90;;;;;;5077763;27;88699;-30
2022/01/22 13:25:20;;;;;;;9.52;4.22;;;7.20;99.90;;;;;;5078203;27;87474;-32
2022/01/22 13:28:10;;;;;;;8.63;4.97;;;7.30;99.90;;;;;;5077889;27;87452;-32
2022/01/22 13:30:42;;;;;;;8.30;5.40;;;7.30;99.90;;;;;;5076787;27;90802;-30
2022/01/22 13:33:24;;;;;;;17.02;5.68;;;7.30;99.90;;;;;;5077707;27;89608;-30
2022/01/22 13:36:12;;;;;;;14.65;5.15;;;7.20;99.90;;;;;;5077383;27;88394;-32
2022/01/22 13:49:33;;;;;;;10.07;5.23;;;7.20;99.90;;;;;;5076159;27;87471;-31
2022/01/22 13:52:07;;;;;;;12.13;6.05;;;7.20;99.90;;;;;;5076104;27;90262;-30
2022/01/22 13:54:41;;;;;;;7.03;4.20;;;7.20;99.90;;;;;;5075871;27;89636;-30
2022/01/22 13:57:19;;;;;;;14.15;5.82;;;7.20;99.90;;;;;;5076190;27;89478;-32
2022/01/22 13:59:47;;;;;;;12.47;5.00;;;7.20;99.90;;;;;;5075048;27;88228;-30
2022/01/22 14:04:52;;;;;;;8.98;5.35;;;7.30;99.90;;;;;;5077088;27;89725;-32
2022/01/22 14:07:33;;;;;;;12.55;5.40;;;7.20;99.90;;;;;;5075671;27;88956;-30
2022/01/22 14:10:05;;;;;;;13.50;5.43;;;7.20;99.90;;;;;;5075377;27;87741;-32
2022/01/22 14:12:40;;;;;;;24.17;5.38;;;7.20;99.90;;;;;;5075543;27;90133;-32
2022/01/22 14:15:13;;;;;;;14.25;5.13;;;7.20;99.90;;;;;;5075614;27;89814;-30
2022/01/22 14:20:35;;;;;;;8.55;4.43;;;7.20;99.90;;;;;;5075034;27;88063;-31
2022/01/22 14:23:07;;;;;;;11.98;5.15;;;7.20;99.90;;;;;;5075904;27;90105;-31
2022/01/22 14:25:35;;;;;;;5.75;4.43;;;7.20;99.90;;;;;;5074706;27;90250;-29
2022/01/22 14:28:07;;;;;;;13.02;4.07;;;7.20;99.90;;;;;;5075181;27;90485;-31
2022/01/22 14:30:44;;;;;;;13.18;4.70;;;7.20;99.90;;;;;;5057117;27;88967;-30
2022/01/22 14:33:12;;;;;;;13.82;4.70;;;7.10;99.90;;;;;;5075298;27;90259;-30
2022/01/22 14:35:38;;;;;;;;;;;7.20;99.90;;;;;;5075311;27;90604;-32
2022/01/22 14:38:32;;;;;;;9.50;4.45;;;7.10;99.90;;;;;;5076516;27;89212;-30
2022/01/22 14:44:24;;;;;;;11.93;4.82;;;7.10;99.90;;;;;;5075026;27;90120;-33
2022/01/22 14:47:02;;;;;;;7.70;3.85;;;7.10;99.90;;;;;;5074584;27;89630;-31
2022/01/22 14:49:34;;;;;;;16.77;4.15;;;7.10;99.90;;;;;;5074418;27;89370;-31
2022/01/22 14:52:01;;;;;;;10.32;4.20;;;7.10;99.90;;;;;;5074435;27;88470;-30
2022/01/22 14:54:31;;;;;;;10.65;4.38;;;7.00;99.90;;;;;;5056229;27;90067;-31
2022/01/22 14:56:56;;;;;;;7.43;3.67;;;7.00;99.90;;;;;;5074981;27;90350;-29
2022/01/22 14:59:22;;;;;;;6.13;3.80;;;7.00;99.90;;;;;;5074435;27;89251;-34
2022/01/22 15:01:48;;;;;;;16.38;4.25;;;7.00;99.90;;;;;;5075036;27;88234;-30
2022/01/22 15:04:14;;;;;;;8.98;3.67;;;7.00;99.90;;;;;;5074290;27;89899;-31
2022/01/22 15:06:40;;;;;;;7.35;3.85;;;6.90;99.90;;;;;;5074455;27;88427;-31
2022/01/22 15:09:06;;;;;;;18.08;4.15;;;6.90;99.90;;;;;;5074163;27;90047;-29
2022/01/22 15:11:34;;;;;;;6.63;3.28;;;6.90;99.90;;;;;;5074825;27;87751;-33
2022/01/22 15:14:02;;;;;;;11.25;3.53;;;6.90;99.90;;;;;;5073631;27;90559;-30